CST,Max TemperatureF,Mean TemperatureF,Min TemperatureF,Max Dew PointF,MeanDew PointF,Min DewpointF,Max Humidity, Mean Humidity, Min Humidity, Max Sea Level PressureIn, Mean Sea Level PressureIn, Min Sea Level PressureIn, Max VisibilityMiles, Mean VisibilityMiles, Min VisibilityMiles, Max Wind SpeedMPH, Mean Wind SpeedMPH, Max Gust SpeedMPH,PrecipitationIn, CloudCover, Events, WindDirDegrees
2013-12-1,57,46,35,49,38,32,89,66,43,30.24,30.12,29.96,10,10,10,9,2,11,T,7,Rain,176
2013-12-2,62,56,49,56,52,48,100,89,78,29.94,29.80,29.74,10,5,0,9,3,11,0.09,7,Fog-Rain,146
2013-12-3,73,60,46,61,55,46,100,82,64,29.76,29.72,29.64,10,5,0,15,7,17,0.00,4,Fog,165
2013-12-4,79,70,61,65,62,60,100,79,58,29.88,29.79,29.73,10,8,5,28,12,33,0.00,3,,191
2013-12-5,74,57,40,68,57,39,96,90,84,30.07,29.95,29.87,10,7,2,17,10,24,0.44,8,Rain,211
2013-12-6,40,35,30,39,35,27,100,95,89,30.38,30.12,30.02,10,6,1,18,11,24,1.63,8,Rain-Snow,6
2013-12-7,32,31,30,30,27,26,92,85,78,30.51,30.39,30.31,10,9,4,17,12,22,0.02,8,,26
2013-12-8,40,36,31,38,35,30,96,91,85,30.30,30.18,30.10,7,4,2,8,2,10,0.23,8,Rain,6
2013-12-9,38,36,33,37,34,32,100,96,92,30.27,30.20,30.15,10,6,2,13,7,16,0.24,8,Rain,7
2013-12-10,43,34,25,32,27,24,100,77,53,30.46,30.38,30.23,10,9,4,15,6,20,0.01,3,Rain,346
2013-12-11,50,37,23,32,28,22,92,69,46,30.56,30.46,30.41,10,10,8,12,5,15,0.00,0,,21
2013-12-12,50,37,23,26,21,13,88,56,23,30.63,30.53,30.41,10,10,9,15,6,21,0.00,0,,39
2013-12-13,49,37,25,45,27,20,84,59,34,30.40,30.18,29.87,10,10,3,18,7,25,0.25,2,Rain,121
2013-12-14,52,46,40,51,44,32,100,85,70,30.15,29.93,29.83,10,7,1,21,8,29,0.49,8,Rain,296
2013-12-15,40,34,27,33,29,25,100,85,70,30.32,30.26,30.15,10,8,4,15,5,20,0.00,6,,329
2013-12-16,57,42,26,36,31,25,92,65,38,30.34,30.26,30.21,10,8,4,17,7,22,0.00,0,,206
2013-12-17,61,48,34,42,36,30,92,70,47,30.31,30.26,30.22,10,10,7,13,5,17,0.00,0,,219
2013-12-18,65,48,30,38,35,29,100,67,34,30.37,30.28,30.19,10,10,6,14,7,17,0.00,0,,129
2013-12-19,66,54,42,54,45,34,76,67,58,30.19,30.11,30.00,10,10,10,20,11,25,0.00,5,,170
2013-12-20,71,66,61,64,60,54,87,80,72,30.03,29.96,29.87,10,10,10,22,13,28,T,7,Rain,175
2013-12-21,80,70,59,67,63,56,100,81,62,29.83,29.71,29.57,10,8,1,35,18,50,0.97,7,Rain,192
2013-12-22,59,50,41,56,51,38,96,90,84,30.25,30.00,29.76,10,10,5,16,7,22,0.03,7,Rain,272
2013-12-23,41,34,27,37,29,25,92,78,64,30.54,30.43,30.26,10,10,10,20,8,25,0.00,6,,348
2013-12-24,44,33,22,27,23,20,92,66,39,30.62,30.52,30.43,10,10,8,15,4,19,0.00,0,,35
2013-12-25,50,37,24,29,23,16,92,58,24,30.45,30.40,30.33,10,10,10,7,2,9,0.00,0,,78
2013-12-26,55,40,24,34,29,23,92,67,41,30.45,30.39,30.35,10,10,10,8,2,12,0.00,0,,8
2013-12-27,57,41,24,34,27,22,100,63,26,30.49,30.42,30.36,10,10,10,10,3,12,0.00,0,,46
2013-12-28,45,42,38,44,40,29,100,77,53,30.36,30.13,29.98,10,7,2,12,3,14,0.22,7,Rain,33
2013-12-29,57,50,43,44,42,37,100,78,55,30.18,30.05,29.98,10,6,1,13,4,17,0.00,6,,267
2013-12-30,43,38,33,36,32,29,89,83,76,30.40,30.28,30.17,10,10,8,13,7,15,0.00,8,,337
2013-12-31,45,37,29,31,29,27,92,71,49,30.48,30.42,30.32,10,10,9,9,3,12,0.00,2,,34